createdAt,value
2023-04-29T00:00:46.514Z,6.60
2023-04-29T00:03:21.064Z,7.00
2023-04-29T00:05:51.156Z,6.70
2023-04-29T00:08:21.109Z,6.80
2023-04-29T00:10:50.927Z,6.50
2023-04-29T00:13:20.913Z,6.40
2023-04-29T00:15:50.478Z,6.70
2023-04-29T00:18:20.171Z,7.90
2023-04-29T00:20:50.039Z,6.90
2023-04-29T00:23:19.806Z,6.70
2023-04-29T00:25:49.983Z,7.40
2023-04-29T00:28:19.568Z,7.10
2023-04-29T00:30:49.217Z,6.90
2023-04-29T00:33:19.029Z,6.90
2023-04-29T00:35:48.637Z,7.30
2023-04-29T00:38:20.649Z,7.00
2023-04-29T00:40:50.504Z,7.60
2023-04-29T00:43:20.228Z,7.20
2023-04-29T00:45:50.604Z,6.40
2023-04-29T00:48:21.162Z,7.20
2023-04-29T00:50:50.836Z,7.30
2023-04-29T00:53:22.595Z,7.90
2023-04-29T00:55:52.906Z,7.90
2023-04-29T00:58:23.564Z,7.60
2023-04-29T01:00:56.440Z,7.10
2023-04-29T01:03:28.707Z,8.30
2023-04-29T01:06:13.308Z,7.20
2023-04-29T01:09:06.340Z,7.40
2023-04-29T01:11:46.841Z,7.30
2023-04-29T01:16:51.267Z,8.40
2023-04-29T01:19:40.171Z,7.60
2023-04-29T01:22:10.281Z,7.60
2023-04-29T01:24:40.286Z,7.80
2023-04-29T01:27:28.029Z,7.70
2023-04-29T01:30:10.705Z,7.40
2023-04-29T01:33:00.836Z,7.00
2023-04-29T01:35:51.457Z,8.30
2023-04-29T01:38:37.256Z,7.20
2023-04-29T01:41:15.657Z,7.30
2023-04-29T01:43:51.406Z,7.70
2023-04-29T01:46:28.039Z,7.80
2023-04-29T01:48:59.693Z,7.50
2023-04-29T01:51:29.446Z,7.10
2023-04-29T01:53:59.269Z,7.70
2023-04-29T01:56:28.984Z,7.70
2023-04-29T01:59:15.984Z,7.20
2023-04-29T02:01:58.410Z,7.70
2023-04-29T02:04:28.486Z,8.00
2023-04-29T02:06:58.258Z,6.80
2023-04-29T02:09:28.880Z,7.00
2023-04-29T02:12:04.106Z,6.30
2023-04-29T02:14:36.208Z,7.30
2023-04-29T02:17:07.814Z,7.90
2023-04-29T02:19:37.567Z,7.00
2023-04-29T02:22:07.250Z,8.10
2023-04-29T02:24:37.074Z,7.10
2023-04-29T02:27:06.797Z,6.80
2023-04-29T02:29:36.867Z,7.50
2023-04-29T02:32:07.206Z,6.70
2023-04-29T02:34:36.893Z,7.50
2023-04-29T02:37:06.521Z,7.20
2023-04-29T02:39:36.090Z,7.00
2023-04-29T02:42:05.972Z,6.80
2023-04-29T02:44:35.600Z,6.90
2023-04-29T02:47:05.408Z,6.90
2023-04-29T02:49:35.224Z,6.10
2023-04-29T02:52:05.344Z,6.70
2023-04-29T02:54:35.974Z,6.20
2023-04-29T02:57:05.751Z,6.90
2023-04-29T02:59:35.632Z,6.30
2023-04-29T03:02:05.524Z,6.60
2023-04-29T03:04:35.388Z,6.00
2023-04-29T03:07:05.295Z,6.50
2023-04-29T03:09:35.295Z,5.80
2023-04-29T03:12:05.586Z,5.80
2023-04-29T03:14:35.951Z,6.60
2023-04-29T03:17:05.648Z,6.10
2023-04-29T03:19:35.562Z,6.00
2023-04-29T03:22:05.809Z,6.00
2023-04-29T03:24:35.644Z,5.00
2023-04-29T03:27:05.664Z,6.40
2023-04-29T03:29:36.014Z,6.10
2023-04-29T03:32:05.839Z,6.50
2023-04-29T03:34:35.567Z,7.00
2023-04-29T03:37:16.032Z,6.20
2023-04-29T03:39:47.749Z,6.40
2023-04-29T03:42:17.317Z,6.20
2023-04-29T03:44:47.373Z,6.50
2023-04-29T03:47:17.120Z,6.60
2023-04-29T03:49:47.025Z,6.40
2023-04-29T03:52:17.010Z,6.20
2023-04-29T03:54:47.212Z,7.10
2023-04-29T03:57:16.936Z,6.50
2023-04-29T03:59:49.718Z,6.60
2023-04-29T04:02:19.535Z,7.00
2023-04-29T04:04:49.586Z,7.40
2023-04-29T04:07:19.640Z,7.40
2023-04-29T04:10:11.207Z,7.10
2023-04-29T04:12:42.129Z,7.30
2023-04-29T04:15:13.581Z,6.90
2023-04-29T04:17:43.492Z,7.70
2023-04-29T04:20:15.545Z,6.40
2023-04-29T04:22:45.427Z,6.90
2023-04-29T04:25:27.695Z,7.70
2023-04-29T04:28:00.464Z,7.20
2023-04-29T04:30:48.280Z,6.80
2023-04-29T04:33:17.965Z,6.60
2023-04-29T04:35:48.652Z,6.70
2023-04-29T04:38:18.721Z,5.90
2023-04-29T04:40:48.498Z,6.60
2023-04-29T04:43:39.466Z,6.80
2023-04-29T04:46:13.921Z,6.80
2023-04-29T04:48:51.412Z,7.90
2023-04-29T04:51:22.453Z,6.70
2023-04-29T04:53:52.101Z,6.00
2023-04-29T04:56:23.966Z,6.70
2023-04-29T04:58:54.015Z,6.30
2023-04-29T05:01:23.710Z,6.00
2023-04-29T05:03:53.712Z,6.40
2023-04-29T05:06:23.504Z,7.40
2023-04-29T05:08:53.330Z,6.60
2023-04-29T05:11:23.384Z,6.40
2023-04-29T05:14:06.368Z,7.10
2023-04-29T05:16:36.097Z,10.10
2023-04-29T05:19:05.948Z,7.30
2023-04-29T05:21:38.446Z,6.00
2023-04-29T05:24:08.691Z,5.60
2023-04-29T05:26:38.590Z,6.30
2023-04-29T05:31:46.129Z,5.50
2023-04-29T05:34:15.980Z,5.00
2023-04-29T05:36:46.196Z,5.50
2023-04-29T05:41:45.111Z,5.90
2023-04-29T05:44:25.122Z,6.10
2023-04-29T05:46:54.670Z,6.30
2023-04-29T05:49:24.380Z,5.40
2023-04-29T05:51:54.187Z,7.90
2023-04-29T05:54:23.914Z,16.90
2023-04-29T05:56:53.770Z,7.80
2023-04-29T05:59:23.464Z,6.30
2023-04-29T06:01:55.851Z,5.90
2023-04-29T06:04:26.594Z,6.10
2023-04-29T06:07:15.386Z,5.50
2023-04-29T06:10:00.842Z,5.50
2023-04-29T06:12:31.812Z,5.60
2023-04-29T06:15:01.542Z,5.90
2023-04-29T06:17:31.881Z,4.80
2023-04-29T06:20:02.038Z,4.80
2023-04-29T06:22:31.833Z,4.20
2023-04-29T06:27:50.089Z,5.00
2023-04-29T06:30:22.481Z,5.00
2023-04-29T06:32:53.070Z,4.40
2023-04-29T06:35:22.811Z,4.80
2023-04-29T06:37:52.797Z,5.00
2023-04-29T06:40:41.009Z,7.00
2023-04-29T06:43:19.683Z,5.20
2023-04-29T06:46:02.252Z,4.80
2023-04-29T06:48:38.215Z,5.40
2023-04-29T06:51:07.956Z,5.80
2023-04-29T06:53:39.710Z,5.50
2023-04-29T06:56:10.021Z,5.30
2023-04-29T07:03:39.883Z,5.40
2023-04-29T07:06:09.755Z,6.10
2023-04-29T07:08:39.813Z,5.50
2023-04-29T07:11:09.521Z,7.30
2023-04-29T07:13:39.333Z,6.20
2023-04-29T07:16:17.520Z,5.50
2023-04-29T07:18:47.276Z,5.70
2023-04-29T07:21:17.013Z,5.90
2023-04-29T07:23:47.513Z,6.70
2023-04-29T07:28:49.277Z,6.60
2023-04-29T07:31:19.139Z,6.10
2023-04-29T07:33:48.958Z,7.20
2023-04-29T07:36:19.259Z,6.70
2023-04-29T07:38:49.046Z,6.10
2023-04-29T07:41:18.699Z,7.90
2023-04-29T07:43:48.276Z,6.50
2023-04-29T07:46:18.120Z,7.20
2023-04-29T07:48:48.002Z,7.10
2023-04-29T07:51:17.680Z,6.30
2023-04-29T07:53:47.310Z,6.80
2023-04-29T07:56:17.105Z,7.10
2023-04-29T07:58:48.333Z,6.70
2023-04-29T08:01:19.040Z,5.70
2023-04-29T08:03:48.828Z,6.50
2023-04-29T08:06:21.754Z,6.30
2023-04-29T08:08:51.470Z,6.90
2023-04-29T08:13:57.421Z,6.30
2023-04-29T08:16:27.564Z,6.50
2023-04-29T08:18:57.319Z,5.50
2023-04-29T08:21:28.134Z,7.80
2023-04-29T08:23:57.672Z,7.80
2023-04-29T08:26:27.715Z,6.80
2023-04-29T08:28:57.541Z,6.90
2023-04-29T08:31:27.309Z,6.40
2023-04-29T08:33:58.203Z,7.00
2023-04-29T08:36:28.166Z,6.60
2023-04-29T08:38:57.781Z,8.10
2023-04-29T08:41:27.507Z,6.20
2023-04-29T08:43:57.092Z,7.70
2023-04-29T08:46:26.855Z,8.60
2023-04-29T08:48:57.557Z,8.90
2023-04-29T08:51:27.630Z,9.40
2023-04-29T08:53:58.122Z,8.50
2023-04-29T08:58:58.671Z,10.40
2023-04-29T09:04:16.020Z,10.70
2023-04-29T09:06:46.431Z,10.40
2023-04-29T09:09:17.844Z,8.20
2023-04-29T09:11:48.621Z,9.90
2023-04-29T09:14:19.023Z,8.90
2023-04-29T09:16:49.838Z,9.50
2023-04-29T09:19:33.656Z,8.30
2023-04-29T09:22:04.489Z,5.80
2023-04-29T09:24:34.160Z,8.60
2023-04-29T09:27:04.031Z,7.10
2023-04-29T09:29:35.969Z,7.50
2023-04-29T09:32:21.208Z,9.50
2023-04-29T09:34:51.242Z,6.70
2023-04-29T09:37:27.507Z,6.40
2023-04-29T09:39:57.342Z,6.50
2023-04-29T09:42:27.411Z,6.10
2023-04-29T09:44:57.116Z,6.00
2023-04-29T09:47:32.830Z,5.40
2023-04-29T09:50:15.952Z,5.30
2023-04-29T09:52:45.583Z,14.20
2023-04-29T09:55:16.951Z,5.90
2023-04-29T09:57:46.691Z,5.70
2023-04-29T10:00:17.110Z,4.70
2023-04-29T10:02:49.467Z,4.80
2023-04-29T10:05:20.769Z,4.30
2023-04-29T10:07:51.163Z,3.70
2023-04-29T10:10:22.960Z,4.70
2023-04-29T10:12:54.512Z,4.60
2023-04-29T10:15:36.815Z,5.00
2023-04-29T10:18:15.034Z,3.90
2023-04-29T10:20:48.836Z,4.00
2023-04-29T10:23:20.929Z,4.20
2023-04-29T10:25:53.727Z,4.40
2023-04-29T10:28:24.471Z,3.50
2023-04-29T10:30:56.116Z,3.80
2023-04-29T10:33:27.893Z,3.50
2023-04-29T10:35:57.753Z,3.40
2023-04-29T10:38:35.679Z,3.60
2023-04-29T10:41:14.402Z,3.80
2023-04-29T10:43:44.350Z,3.50
2023-04-29T10:46:22.454Z,3.40
2023-04-29T10:48:59.083Z,5.40
2023-04-29T10:51:34.502Z,2.70
2023-04-29T10:54:08.634Z,3.50
2023-04-29T10:56:40.381Z,3.10
2023-04-29T10:59:16.489Z,3.20
2023-04-29T11:01:48.732Z,2.90
2023-04-29T11:04:19.686Z,2.90
2023-04-29T11:06:55.321Z,3.20
2023-04-29T11:09:28.463Z,2.70
2023-04-29T11:12:06.311Z,7.10
2023-04-29T11:14:41.332Z,2.40
2023-04-29T11:17:13.565Z,4.00
2023-04-29T11:19:45.847Z,2.80
2023-04-29T11:22:26.914Z,2.80
2023-04-29T11:25:00.124Z,2.70
2023-04-29T11:27:32.815Z,2.70
2023-04-29T11:30:07.110Z,2.50
2023-04-29T11:32:39.508Z,2.30
2023-04-29T11:35:14.255Z,2.40
2023-04-29T11:37:45.496Z,2.00
2023-04-29T11:40:17.564Z,2.00
2023-04-29T11:42:48.716Z,2.90
2023-04-29T11:45:20.150Z,2.40
2023-04-29T11:47:50.794Z,2.50
2023-04-29T11:50:22.388Z,2.20
2023-04-29T11:52:52.404Z,2.20
2023-04-29T11:55:22.046Z,1.90
2023-04-29T11:57:52.739Z,2.00
2023-04-29T12:00:22.751Z,1.80
2023-04-29T12:02:52.992Z,1.80
2023-04-29T12:05:26.621Z,1.80
2023-04-29T12:07:57.468Z,1.90
2023-04-29T12:10:27.915Z,2.10
2023-04-29T12:12:58.203Z,2.20
2023-04-29T12:15:29.161Z,1.80
2023-04-29T12:18:00.703Z,2.00
2023-04-29T12:20:30.783Z,2.00
2023-04-29T12:23:12.362Z,2.50
2023-04-29T12:25:42.228Z,2.60
2023-04-29T12:28:15.519Z,2.40
2023-04-29T12:30:46.796Z,2.30
2023-04-29T12:33:22.103Z,3.40
2023-04-29T12:35:52.598Z,4.10
2023-04-29T12:38:27.123Z,2.80
2023-04-29T12:40:58.892Z,3.10
2023-04-29T12:43:29.609Z,3.20
2023-04-29T12:46:05.196Z,3.60
2023-04-29T12:48:38.104Z,4.00
2023-04-29T12:51:10.050Z,3.30
2023-04-29T12:53:39.843Z,3.50
2023-04-29T12:56:12.022Z,3.80
2023-04-29T12:58:41.712Z,3.30
2023-04-29T13:01:11.934Z,2.80
2023-04-29T13:03:42.002Z,3.30
2023-04-29T13:08:40.321Z,3.90
2023-04-29T13:11:10.584Z,3.00
2023-04-29T13:13:40.684Z,2.50
2023-04-29T13:16:10.999Z,2.40
2023-04-29T13:18:47.915Z,2.20
2023-04-29T13:21:29.760Z,2.40
2023-04-29T13:23:59.359Z,2.30
2023-04-29T13:26:29.768Z,2.70
2023-04-29T13:28:59.547Z,2.50
2023-04-29T13:33:57.845Z,2.80
2023-04-29T13:36:28.191Z,2.20
2023-04-29T13:38:57.910Z,2.40
2023-04-29T13:41:28.111Z,2.30
2023-04-29T13:43:58.533Z,2.60
2023-04-29T13:46:28.959Z,2.00
2023-04-29T13:52:20.105Z,1.70
2023-04-29T13:57:47.563Z,1.70
2023-04-29T13:59:52.282Z,1.50
2023-04-29T14:02:25.660Z,1.70
2023-04-29T14:04:56.592Z,1.90
2023-04-29T14:07:26.550Z,1.90
2023-04-29T14:09:56.502Z,2.00
2023-04-29T14:12:26.267Z,3.30
2023-04-29T14:14:56.920Z,2.40
2023-04-29T14:17:28.060Z,2.50
2023-04-29T14:19:57.730Z,2.50
2023-04-29T14:22:27.528Z,2.40
2023-04-29T14:24:57.134Z,2.30
2023-04-29T14:27:26.921Z,2.60
2023-04-29T14:29:56.457Z,2.80
2023-04-29T14:32:26.276Z,2.10
2023-04-29T14:34:56.077Z,2.20
2023-04-29T14:37:26.380Z,2.40
2023-04-29T14:42:25.133Z,2.40
2023-04-29T14:47:24.349Z,2.00
2023-04-29T14:49:54.031Z,2.40
2023-04-29T14:52:23.754Z,2.40
2023-04-29T14:54:53.594Z,2.20
2023-04-29T14:57:23.456Z,2.10
2023-04-29T14:59:53.251Z,2.00
2023-04-29T15:02:22.936Z,2.30
2023-04-29T15:04:52.850Z,2.00
2023-04-29T15:07:22.847Z,2.30
2023-04-29T15:09:52.583Z,2.20
2023-04-29T15:12:22.429Z,2.90
2023-04-29T15:14:53.340Z,2.10
2023-04-29T15:17:23.207Z,1.60
2023-04-29T15:19:52.924Z,1.90
2023-04-29T15:22:22.636Z,2.30
2023-04-29T15:24:52.471Z,2.10
2023-04-29T15:27:22.476Z,2.10
2023-04-29T15:29:53.817Z,2.00
2023-04-29T15:32:30.835Z,2.10
2023-04-29T15:35:01.259Z,3.70
2023-04-29T15:40:01.989Z,3.70
2023-04-29T15:42:31.898Z,4.00
2023-04-29T15:45:01.489Z,3.30
2023-04-29T15:47:31.182Z,4.40
2023-04-29T15:50:00.884Z,4.90
2023-04-29T15:52:30.576Z,6.40
2023-04-29T15:55:00.156Z,5.80
2023-04-29T15:57:29.906Z,6.30
2023-04-29T15:59:59.658Z,6.20
2023-04-29T16:02:29.353Z,5.70
2023-04-29T16:04:59.067Z,5.90
2023-04-29T16:07:28.714Z,4.60
2023-04-29T16:09:58.385Z,4.40
2023-04-29T16:12:28.094Z,4.80
2023-04-29T16:14:57.684Z,4.70
2023-04-29T16:17:27.732Z,4.50
2023-04-29T16:19:57.777Z,5.30
2023-04-29T16:22:27.921Z,4.50
2023-04-29T16:24:57.555Z,5.10
2023-04-29T16:27:29.430Z,5.20
2023-04-29T16:29:59.514Z,6.20
2023-04-29T16:32:29.419Z,4.70
2023-04-29T16:35:01.259Z,5.60
2023-04-29T16:37:31.733Z,5.70
2023-04-29T16:40:01.394Z,4.90
2023-04-29T16:42:31.006Z,6.10
2023-04-29T16:45:00.649Z,7.80
2023-04-29T16:47:30.531Z,8.70
2023-04-29T16:50:00.337Z,7.60
2023-04-29T16:52:30.009Z,7.10
2023-04-29T16:55:01.013Z,9.40
2023-04-29T16:57:31.472Z,8.90
2023-04-29T17:02:30.709Z,8.50
2023-04-29T17:05:00.583Z,7.20
2023-04-29T17:07:30.770Z,7.20
2023-04-29T17:10:00.366Z,7.40
2023-04-29T17:12:29.952Z,5.80
2023-04-29T17:14:59.682Z,6.20
2023-04-29T17:17:29.413Z,7.00
2023-04-29T17:19:59.139Z,5.80
2023-04-29T17:22:28.824Z,6.50
2023-04-29T17:24:58.612Z,5.90
2023-04-29T17:27:28.321Z,4.70
2023-04-29T17:29:58.041Z,4.40
2023-04-29T17:32:29.027Z,4.80
2023-04-29T17:34:59.935Z,4.60
2023-04-29T17:37:29.983Z,4.30
2023-04-29T17:39:59.625Z,3.90
2023-04-29T17:42:29.588Z,6.60
2023-04-29T17:44:59.223Z,11.40
2023-04-29T17:47:29.068Z,10.40
2023-04-29T17:50:01.762Z,13.40
2023-04-29T17:52:32.175Z,7.50
2023-04-29T17:55:01.826Z,5.40
2023-04-29T17:57:31.597Z,5.90
2023-04-29T18:00:02.781Z,7.80
2023-04-29T18:02:35.128Z,6.10
2023-04-29T18:05:05.742Z,5.60
